Hamilton, Pennsylvania
Current Conditions -  °F | °C
As of 10:35 AM on Wednesday 26 Nov 2014 (Local Time) from KIDI Reporting Station
Moderate Fog Moderate Fog  
Wind Chill: 27°   Ceiling: 900
Heat Index: 32°   Visibility: 0.5mi
Dew Point: 32°   Wind: 5mph
Humidity: 100%   Direction: 350°N
Pressure: 30.1"   Gusts: NA
Location:  40.92°N, 79.08°W
Report Text: KIDI 261535Z AUTO 35004KT 1/2SM FG OVC009 00/M00 A3010 RMK A01
Loading
Personal Weather Stations






























Interactive Weather Map New forecast layout! Learn more

10-Day Weather Forecast

Advertisements
Track Severe Weather on mobile